Terminal Aerodrome Forecast
Issued by NWS Mt. Holly, NJ

Home | Current Version | Previous Version | Text Only | Print | Product List | Glossary On
Versions: 1 2 3 4 5 6 7 8 9 10 11 12 13 14 15 16 17 18 19 20 21 22 23 24 25 26
000
FTUS41 KPHI 140900 AAB
TAFABE
TAF AMD
KABE 140900Z 1409/1506 24004KT 4SM BR BKN008 BKN100
      TEMPO 1410/1412 2SM BR BKN008
     FM141400 19005KT P6SM SCT020 BKN050
     FM141800 20008KT P6SM SHRA BKN040
      TEMPO 1421/1424 3SM TSRA BKN025CB
     FM150300 18004KT 4SM BR SCT040 BKN120=

USA.gov is the U.S. government's official web portal to all federal, state and local government web resources and services.